Time;durP1;ratioP1;P1;durP2;ratioP2;P2;SDS_P1;SDS_P2;PMS_P1;PMS_P2;Temp;Humidity;BMP_temperature;BMP_pressure;BME280_temperature;BME280_humidity;BME280_pressure;Samples;Min_cycle;Max_cycle;Signal;HPM_P1;HPM_P2
2022/11/03 00:01:43;;;;;;;8.43;2.57;;;10.20;1.00;;;;;;5099943;28;20198;-66
2022/11/03 00:04:13;;;;;;;6.23;2.03;;;10.30;1.00;;;;;;5081451;28;20259;-66
2022/11/03 00:06:41;;;;;;;9.40;2.57;;;10.30;1.00;;;;;;5081900;28;20197;-68
2022/11/03 00:09:11;;;;;;;9.57;2.60;;;10.40;1.00;;;;;;5083007;28;20262;-67
2022/11/03 00:11:40;;;;;;;12.67;2.17;;;10.40;1.00;;;;;;5073762;28;20220;-66
2022/11/03 00:14:08;;;;;;;9.70;2.50;;;10.30;1.00;;;;;;5101263;28;20261;-67
2022/11/03 00:16:36;;;;;;;8.40;2.17;;;10.30;1.00;;;;;;5102514;28;20196;-67
2022/11/03 00:19:03;;;;;;;6.03;2.03;;;10.30;1.00;;;;;;5091011;28;20213;-65
2022/11/03 00:21:31;;;;;;;8.20;2.20;;;10.30;1.00;;;;;;5101500;28;20211;-67
2022/11/03 00:24:01;;;;;;;11.00;2.57;;;10.30;1.00;;;;;;5081467;28;20613;-67
2022/11/03 00:26:30;;;;;;;8.33;2.20;;;10.30;1.00;;;;;;5101269;28;20194;-67
2022/11/03 00:28:59;;;;;;;16.97;3.00;;;10.40;1.00;;;;;;5082838;28;20296;-66
2022/11/03 00:31:29;;;;;;;11.13;2.73;;;10.40;1.00;;;;;;5100088;28;20190;-67
2022/11/03 00:33:58;;;;;;;13.87;2.47;;;10.40;1.00;;;;;;5099353;28;20202;-66
2022/11/03 00:36:28;;;;;;;7.57;2.70;;;10.40;1.00;;;;;;5100554;28;20201;-66
2022/11/03 00:38:55;;;;;;;9.77;2.30;;;10.40;1.00;;;;;;5065863;28;20206;-66
2022/11/03 00:41:22;;;;;;;13.67;2.70;;;10.40;1.00;;;;;;5091142;28;20198;-66
2022/11/03 00:43:51;;;;;;;7.77;2.30;;;10.40;1.00;;;;;;5066830;28;20227;-66
2022/11/03 00:46:20;;;;;;;10.87;3.03;;;10.40;1.00;;;;;;5100464;28;20200;-67
2022/11/03 00:48:47;;;;;;;11.23;2.43;;;10.40;1.00;;;;;;5082584;28;20332;-66
2022/11/03 00:51:16;;;;;;;9.03;2.77;;;10.40;1.00;;;;;;5088864;28;21118;-66
2022/11/03 00:53:47;;;;;;;11.93;2.83;;;10.30;1.00;;;;;;5090615;28;20197;-67
2022/11/03 00:56:16;;;;;;;9.53;2.43;;;10.30;1.00;;;;;;5097998;28;20230;-66
2022/11/03 00:58:44;;;;;;;7.23;2.30;;;10.20;1.00;;;;;;5101435;28;20197;-66
2022/11/03 01:01:13;;;;;;;9.07;2.57;;;10.20;1.00;;;;;;5102153;28;20194;-65
2022/11/03 01:06:48;;;;;;;10.30;2.13;;;10.20;1.00;;;;;;5099337;28;20198;-66
2022/11/03 01:06:50;;;;;;;10.00;3.10;;;10.10;1.00;;;;;;5085717;28;20194;-66
2022/11/03 01:09:21;;;;;;;9.73;2.40;;;10.30;1.00;;;;;;5099852;28;20237;-66
2022/11/03 01:11:59;;;;;;;13.20;3.30;;;10.20;1.00;;;;;;5101359;28;20693;-66
2022/11/03 01:14:30;;;;;;;15.57;3.33;;;10.20;1.00;;;;;;5083558;28;20193;-68
2022/11/03 01:16:57;;;;;;;12.30;3.00;;;10.10;1.00;;;;;;5090488;28;20809;-66
2022/11/03 01:19:24;;;;;;;13.10;3.23;;;10.00;1.00;;;;;;5073015;28;20289;-68
2022/11/03 01:21:52;;;;;;;7.57;2.67;;;10.00;1.00;;;;;;5082272;28;20236;-68
2022/11/03 01:24:20;;;;;;;11.07;2.77;;;10.20;1.00;;;;;;5089711;28;20248;-66
2022/11/03 01:26:47;;;;;;;11.57;2.60;;;10.00;1.00;;;;;;5088491;28;20249;-66
2022/11/03 01:29:14;;;;;;;13.30;2.50;;;10.10;1.00;;;;;;5082084;28;20583;-66
2022/11/03 01:31:41;;;;;;;14.03;2.80;;;10.20;1.00;;;;;;5081424;28;20607;-66
2022/11/03 01:34:15;;;;;;;12.60;3.07;;;10.10;1.00;;;;;;5099537;28;20316;-65
2022/11/03 01:36:43;;;;;;;10.67;3.00;;;10.20;1.00;;;;;;5065776;28;20324;-67
2022/11/03 01:39:12;;;;;;;16.37;3.00;;;10.20;1.00;;;;;;5089664;28;20678;-66
2022/11/03 01:41:39;;;;;;;6.27;2.60;;;10.20;1.00;;;;;;5088778;28;20197;-65
2022/11/03 01:44:06;;;;;;;7.97;2.70;;;10.20;1.00;;;;;;5105103;28;20193;-68
2022/11/03 01:46:41;;;;;;;13.07;3.27;;;10.20;1.00;;;;;;5085579;28;20210;-65
2022/11/03 01:49:36;;;;;;;11.40;2.77;;;10.10;1.00;;;;;;5090558;28;20215;-66
2022/11/03 01:52:38;;;;;;;11.50;2.93;;;10.10;1.00;;;;;;5085993;28;20261;-64
2022/11/03 01:55:12;;;;;;;12.97;2.70;;;10.00;1.00;;;;;;5092927;28;20201;-64
2022/11/03 01:57:51;;;;;;;10.03;2.73;;;10.00;1.00;;;;;;5101307;28;20289;-67
2022/11/03 02:00:19;;;;;;;8.37;2.97;;;10.10;1.00;;;;;;5101053;28;20244;-64
2022/11/03 02:02:47;;;;;;;12.43;3.87;;;10.10;1.00;;;;;;5085656;28;20194;-67
2022/11/03 02:05:18;;;;;;;11.17;2.37;;;10.20;1.00;;;;;;5085840;28;20533;-65
2022/11/03 02:07:49;;;;;;;9.33;2.57;;;10.20;1.00;;;;;;5084718;28;20228;-66
2022/11/03 02:10:17;;;;;;;11.80;3.30;;;10.20;1.00;;;;;;5086184;28;20194;-67
2022/11/03 02:12:45;;;;;;;14.50;3.00;;;10.10;1.00;;;;;;5104224;28;20645;-65
2022/11/03 02:15:15;;;;;;;7.13;2.77;;;10.20;1.00;;;;;;5069676;28;20190;-65
2022/11/03 02:17:43;;;;;;;11.50;3.37;;;10.20;1.00;;;;;;5085919;28;20213;-65
2022/11/03 02:20:17;;;;;;;13.13;2.93;;;10.20;1.00;;;;;;5105294;28;20202;-65
2022/11/03 02:23:19;;;;;;;10.83;2.77;;;10.30;1.00;;;;;;5105377;28;20209;-66
2022/11/03 02:25:56;;;;;;;10.37;2.73;;;10.40;1.00;;;;;;5103064;28;21048;-65
2022/11/03 02:28:28;;;;;;;8.90;2.97;;;10.40;1.00;;;;;;5105107;28;20221;-66
2022/11/03 02:31:07;;;;;;;9.70;2.50;;;10.50;1.00;;;;;;5092452;28;20226;-65
2022/11/03 02:33:56;;;;;;;12.80;3.00;;;10.40;1.00;;;;;;5104146;28;20611;-65
2022/11/03 02:36:28;;;;;;;10.87;2.60;;;10.50;1.00;;;;;;5102331;28;20413;-64
2022/11/03 02:39:03;;;;;;;8.97;2.50;;;10.50;1.00;;;;;;5103943;28;20294;-65
2022/11/03 02:41:34;;;;;;;15.63;3.23;;;10.40;1.00;;;;;;5086414;28;20193;-68
2022/11/03 02:44:06;;;;;;;10.00;2.93;;;10.40;1.00;;;;;;5104783;28;20194;-64
2022/11/03 02:46:34;;;;;;;18.30;2.67;;;10.40;1.00;;;;;;5084926;28;20199;-66
2022/11/03 02:49:01;;;;;;;13.23;2.70;;;10.40;1.00;;;;;;5104152;28;20300;-66
2022/11/03 02:51:28;;;;;;;13.93;3.20;;;10.40;1.00;;;;;;5103672;28;20324;-66
2022/11/03 02:54:18;;;;;;;10.37;2.50;;;10.60;1.00;;;;;;5067509;28;20204;-66
2022/11/03 02:56:58;;;;;;;9.43;2.47;;;10.50;1.00;;;;;;5083544;28;20197;-67
2022/11/03 02:59:57;;;;;;;18.60;3.57;;;10.50;1.00;;;;;;5091265;28;20186;-64
2022/11/03 03:02:33;;;;;;;11.10;2.03;;;10.50;1.00;;;;;;5091577;28;20202;-65
2022/11/03 03:05:06;;;;;;;16.33;3.00;;;10.40;1.00;;;;;;5088921;28;20185;-66
2022/11/03 03:07:38;;;;;;;13.23;3.00;;;10.50;1.00;;;;;;5102191;28;20225;-65
2022/11/03 03:10:10;;;;;;;11.27;2.50;;;10.60;1.00;;;;;;5091877;28;20217;-67
2022/11/03 03:12:44;;;;;;;15.07;2.97;;;10.50;1.00;;;;;;5075716;28;20738;-67
2022/11/03 03:15:12;;;;;;;15.40;2.60;;;10.50;1.00;;;;;;5069432;28;20612;-66
2022/11/03 03:17:59;;;;;;;11.87;2.90;;;10.70;1.00;;;;;;5102149;28;20200;-70
2022/11/03 03:20:56;;;;;;;8.20;2.50;;;10.70;1.00;;;;;;5085058;28;21185;-70
2022/11/03 03:23:26;;;;;;;12.80;2.60;;;10.60;1.00;;;;;;5104473;28;20178;-70
2022/11/03 03:26:04;;;;;;;12.33;2.90;;;10.60;1.00;;;;;;5102719;28;20221;-70
2022/11/03 03:29:05;;;;;;;8.43;2.50;;;10.70;1.00;;;;;;5087516;28;20235;-68
2022/11/03 03:31:37;;;;;;;18.43;3.60;;;10.70;1.00;;;;;;5104861;28;21225;-65
2022/11/03 03:34:04;;;;;;;11.83;3.00;;;10.80;1.00;;;;;;5085548;28;20289;-65
2022/11/03 03:36:55;;;;;;;6.30;2.90;;;10.90;1.00;;;;;;5084601;28;20290;-66
2022/11/03 03:39:26;;;;;;;12.43;3.27;;;10.80;1.00;;;;;;5083126;28;20208;-66
2022/11/03 03:41:55;;;;;;;8.17;2.27;;;10.90;1.00;;;;;;5092247;28;20277;-65
2022/11/03 03:44:23;;;;;;;13.07;3.03;;;10.80;1.00;;;;;;5101185;28;20259;-65
2022/11/03 03:46:58;;;;;;;9.47;3.13;;;10.80;1.00;;;;;;5090846;28;20302;-65
2022/11/03 03:49:25;;;;;;;12.87;2.80;;;10.80;1.00;;;;;;5074162;28;20202;-65
2022/11/03 03:51:56;;;;;;;13.40;2.77;;;10.80;1.00;;;;;;5101842;28;20224;-65
2022/11/03 03:54:26;;;;;;;15.77;3.30;;;10.90;1.00;;;;;;5100811;28;20681;-64
2022/11/03 03:57:02;;;;;;;10.97;2.80;;;10.90;1.00;;;;;;5083299;28;20198;-65
2022/11/03 03:59:29;;;;;;;12.37;2.77;;;10.90;1.00;;;;;;5091112;28;20202;-64
2022/11/03 04:01:57;;;;;;;13.53;2.67;;;10.90;1.00;;;;;;5100932;28;20778;-64
2022/11/03 04:04:25;;;;;;;7.43;2.50;;;10.90;1.00;;;;;;5098747;28;20202;-64
2022/11/03 04:07:45;;;;;;;7.67;2.60;;;10.90;1.00;;;;;;5082541;28;20212;-66
2022/11/03 04:09:39;;;;;;;10.57;2.63;;;11.00;1.00;;;;;;5098970;28;20245;-65
2022/11/03 04:23:15;;;;;;;12.33;3.00;;;10.80;1.00;;;;;;5082615;28;20256;-65
2022/11/03 04:25:47;;;;;;;9.50;2.97;;;10.80;1.00;;;;;;5101256;28;20246;-66
2022/11/03 04:28:14;;;;;;;9.97;2.07;;;10.80;1.00;;;;;;5101304;28;20264;-67
2022/11/03 04:30:42;;;;;;;11.87;2.73;;;10.90;1.00;;;;;;5099705;28;20198;-65
2022/11/03 04:33:19;;;;;;;9.10;2.70;;;10.80;1.00;;;;;;5091237;28;20194;-64
2022/11/03 04:35:47;;;;;;;6.73;2.47;;;10.80;1.00;;;;;;5087713;28;20204;-66
2022/11/03 04:38:14;;;;;;;11.03;2.93;;;10.70;1.00;;;;;;5087758;28;20206;-64
2022/11/03 04:40:46;;;;;;;8.83;3.13;;;10.70;1.00;;;;;;5088975;28;20226;-64
2022/11/03 04:43:20;;;;;;;12.17;3.00;;;10.70;1.00;;;;;;5072488;28;20239;-65
2022/11/03 04:45:48;;;;;;;8.03;3.17;;;10.70;1.00;;;;;;5089603;28;21037;-64
2022/11/03 04:48:20;;;;;;;11.17;3.53;;;10.80;1.00;;;;;;5087816;28;20246;-64
2022/11/03 04:50:49;;;;;;;11.50;2.77;;;10.80;1.00;;;;;;5098610;28;20268;-64
2022/11/03 04:53:17;;;;;;;14.67;3.33;;;10.70;1.00;;;;;;5099650;28;20198;-64
2022/11/03 04:55:47;;;;;;;11.90;2.77;;;10.70;1.00;;;;;;5071862;28;20193;-64
2022/11/03 04:58:25;;;;;;;12.10;3.57;;;10.70;1.00;;;;;;5097718;28;20191;-66
2022/11/03 05:00:55;;;;;;;10.43;3.13;;;10.70;1.00;;;;;;5089363;28;20243;-66
2022/11/03 05:03:29;;;;;;;10.40;2.30;;;10.70;1.00;;;;;;5071429;28;20198;-64
2022/11/03 05:05:56;;;;;;;9.73;2.37;;;10.70;1.00;;;;;;5083251;28;20243;-67
2022/11/03 05:08:24;;;;;;;8.80;3.20;;;10.70;1.00;;;;;;5090054;28;20702;-67
2022/11/03 05:10:51;;;;;;;10.27;2.60;;;10.70;1.00;;;;;;5099958;28;20322;-67
2022/11/03 05:13:27;;;;;;;9.23;2.50;;;10.70;1.00;;;;;;5099967;28;20575;-68
2022/11/03 05:16:02;;;;;;;10.67;2.60;;;10.70;1.00;;;;;;5072118;28;20745;-66
2022/11/03 05:18:34;;;;;;;21.13;3.70;;;10.70;1.00;;;;;;5087679;28;20197;-67
2022/11/03 05:21:07;;;;;;;12.77;2.90;;;10.70;1.00;;;;;;5086419;28;20601;-69
2022/11/03 05:23:56;;;;;;;13.57;2.70;;;10.70;1.00;;;;;;5092662;28;20221;-66
2022/11/03 05:26:28;;;;;;;13.17;3.00;;;10.80;1.00;;;;;;5092100;28;20226;-66
2022/11/03 05:29:00;;;;;;;13.13;3.00;;;10.80;1.00;;;;;;5093300;28;20277;-65
2022/11/03 05:31:34;;;;;;;7.87;2.40;;;10.80;1.00;;;;;;5092415;28;20201;-66
2022/11/03 05:34:20;;;;;;;11.10;2.60;;;10.90;1.00;;;;;;5086734;28;20929;-66
2022/11/03 05:36:47;;;;;;;15.97;3.03;;;10.90;1.00;;;;;;5103486;28;20611;-67
2022/11/03 05:39:26;;;;;;;11.83;2.63;;;11.00;1.00;;;;;;5104238;28;20194;-66
2022/11/03 05:41:54;;;;;;;13.97;2.80;;;11.10;1.00;;;;;;5086168;28;20216;-67
2022/11/03 05:44:30;;;;;;;9.87;2.70;;;11.10;1.00;;;;;;5085875;28;20202;-66
2022/11/03 05:46:57;;;;;;;10.43;2.63;;;11.20;1.00;;;;;;5091882;28;20209;-67
2022/11/03 05:49:30;;;;;;;11.43;2.90;;;11.10;1.00;;;;;;5102276;28;20301;-65
2022/11/03 05:51:57;;;;;;;12.30;2.73;;;11.10;1.00;;;;;;5085214;28;20209;-67
2022/11/03 05:54:27;;;;;;;7.17;2.57;;;11.10;1.00;;;;;;5103378;28;20731;-66
2022/11/03 05:56:55;;;;;;;12.90;2.30;;;11.10;1.00;;;;;;5101645;28;20200;-67
2022/11/03 05:59:25;;;;;;;9.33;2.33;;;11.10;1.00;;;;;;5092149;28;20639;-67
2022/11/03 06:01:57;;;;;;;11.73;2.70;;;11.10;1.00;;;;;;5074300;28;20199;-67
2022/11/03 06:04:36;;;;;;;13.73;2.90;;;11.10;1.00;;;;;;5093443;28;20539;-68
2022/11/03 06:07:17;;;;;;;11.40;2.63;;;11.00;1.00;;;;;;5102859;28;20187;-67
2022/11/03 06:09:44;;;;;;;11.33;2.53;;;11.20;1.00;;;;;;5074793;28;20228;-67
2022/11/03 06:12:16;;;;;;;10.60;2.90;;;11.10;1.00;;;;;;5076132;28;20205;-65
2022/11/03 06:14:44;;;;;;;9.57;2.27;;;11.10;1.00;;;;;;5085969;28;20182;-67
2022/11/03 06:17:26;;;;;;;10.97;3.43;;;11.10;1.00;;;;;;5103714;28;20281;-65
2022/11/03 06:19:58;;;;;;;9.00;2.73;;;11.10;1.00;;;;;;5103228;28;20232;-67
2022/11/03 06:22:29;;;;;;;11.33;2.70;;;11.20;1.00;;;;;;5086468;28;20206;-70
2022/11/03 06:25:30;;;;;;;7.90;2.97;;;11.10;1.00;;;;;;5102671;28;20246;-66
2022/11/03 06:28:03;;;;;;;11.63;2.50;;;11.10;1.00;;;;;;5073521;28;20268;-67
2022/11/03 06:30:33;;;;;;;7.40;2.27;;;11.10;1.00;;;;;;5075485;27;20237;-66
2022/11/03 06:33:14;;;;;;;9.67;2.93;;;11.20;1.00;;;;;;5086124;28;20742;-67
2022/11/03 06:35:43;;;;;;;8.37;2.53;;;11.20;1.00;;;;;;5082350;28;20218;-67
2022/11/03 06:38:33;;;;;;;8.07;2.50;;;11.30;1.00;;;;;;5092394;28;20672;-67
2022/11/03 06:40:59;;;;;;;9.77;2.53;;;11.30;1.00;;;;;;5104430;28;20630;-66
2022/11/03 06:43:47;;;;;;;7.67;2.40;;;11.40;1.00;;;;;;5084667;28;20206;-67
2022/11/03 06:46:25;;;;;;;9.53;2.70;;;11.40;1.00;;;;;;5090815;28;20703;-65
2022/11/03 06:48:56;;;;;;;10.43;3.13;;;11.50;1.00;;;;;;5081346;28;20240;-65
2022/11/03 06:51:26;;;;;;;10.07;2.40;;;11.40;1.00;;;;;;5084864;28;20322;-69
2022/11/03 06:53:56;;;;;;;9.47;2.50;;;11.50;1.00;;;;;;5102764;28;20189;-66
2022/11/03 06:56:35;;;;;;;8.87;2.40;;;11.60;1.00;;;;;;5087232;28;20254;-67
2022/11/03 06:59:02;;;;;;;6.90;2.40;;;11.60;1.00;;;;;;5075355;28;20198;-68
2022/11/03 07:01:32;;;;;;;7.80;3.03;;;11.60;1.00;;;;;;5083769;28;20210;-68
2022/11/03 07:04:05;;;;;;;5.23;2.20;;;11.80;1.00;;;;;;5102090;28;20198;-66
2022/11/03 07:06:35;;;;;;;8.93;2.70;;;11.80;1.00;;;;;;5068890;28;20504;-65
2022/11/03 07:09:05;;;;;;;7.20;2.40;;;11.80;1.00;;;;;;5072107;28;20196;-67
2022/11/03 07:11:51;;;;;;;10.90;2.83;;;11.90;1.00;;;;;;5089182;28;20214;-64
2022/11/03 07:14:26;;;;;;;8.70;2.30;;;11.80;1.00;;;;;;5105046;28;20204;-68
2022/11/03 07:16:57;;;;;;;8.47;2.50;;;11.80;1.00;;;;;;5102611;28;20199;-64
2022/11/03 07:19:27;;;;;;;11.23;3.33;;;11.90;1.00;;;;;;5082627;28;20193;-66
2022/11/03 07:22:04;;;;;;;6.57;2.40;;;12.00;1.00;;;;;;5102996;28;20219;-65
2022/11/03 07:24:38;;;;;;;9.50;2.77;;;12.00;1.00;;;;;;5102992;28;20193;-64
2022/11/03 07:27:32;;;;;;;9.50;2.70;;;12.00;1.00;;;;;;5101529;28;20227;-66
2022/11/03 07:30:25;;;;;;;11.30;2.60;;;11.90;1.00;;;;;;5072023;28;20292;-66
2022/11/03 07:32:54;;;;;;;7.53;2.87;;;12.00;1.00;;;;;;5102863;28;20748;-66
2022/11/03 07:35:35;;;;;;;9.10;2.37;;;12.00;1.00;;;;;;5102005;28;20274;-66
2022/11/03 07:38:26;;;;;;;11.27;2.70;;;12.10;1.00;;;;;;5100925;28;20255;-66
2022/11/03 07:40:56;;;;;;;8.73;2.63;;;12.10;1.00;;;;;;5102252;28;20528;-65
2022/11/03 07:43:34;;;;;;;10.07;2.30;;;12.20;1.00;;;;;;5074974;28;20229;-66
2022/11/03 07:46:03;;;;;;;7.80;2.80;;;12.20;1.00;;;;;;5102651;28;20197;-65
2022/11/03 07:48:38;;;;;;;12.87;3.00;;;12.30;1.00;;;;;;5101196;28;20202;-65
2022/11/03 07:51:17;;;;;;;7.13;2.50;;;12.30;1.00;;;;;;5103554;28;20208;-68
2022/11/03 07:54:16;;;;;;;10.40;2.83;;;12.40;1.00;;;;;;5071729;28;20684;-67
2022/11/03 07:57:14;;;;;;;7.53;2.80;;;12.40;1.00;;;;;;5058140;28;20696;-66
2022/11/03 07:59:45;;;;;;;11.50;2.97;;;12.40;1.00;;;;;;5077237;28;20711;-69
2022/11/03 08:02:30;;;;;;;5.63;2.13;;;12.40;1.00;;;;;;5066972;28;20194;-69
2022/11/03 08:04:58;;;;;;;10.97;3.17;;;12.40;1.00;;;;;;5087868;28;20201;-67
2022/11/03 08:07:28;;;;;;;10.53;2.80;;;12.40;1.00;;;;;;5064109;28;20336;-66
2022/11/03 08:09:55;;;;;;;9.13;2.83;;;12.50;1.00;;;;;;5097930;28;20205;-67
2022/11/03 08:12:22;;;;;;;13.70;3.07;;;12.60;1.00;;;;;;5101346;28;20211;-65
2022/11/03 08:14:49;;;;;;;11.67;2.63;;;12.60;1.00;;;;;;5100872;28;20194;-66
2022/11/03 08:17:16;;;;;;;10.93;2.87;;;12.60;1.00;;;;;;5067171;28;20210;-66
2022/11/03 08:19:43;;;;;;;8.30;2.57;;;12.60;1.00;;;;;;5085207;28;20308;-66
2022/11/03 08:22:10;;;;;;;5.70;2.40;;;12.70;1.00;;;;;;5101142;28;20197;-67
2022/11/03 08:24:37;;;;;;;8.67;2.47;;;12.80;1.00;;;;;;5100890;28;20201;-65
2022/11/03 08:27:04;;;;;;;9.47;2.37;;;12.80;1.00;;;;;;5083953;28;20758;-65
2022/11/03 08:29:31;;;;;;;7.87;2.70;;;13.00;1.00;;;;;;5100966;28;20680;-65
2022/11/03 08:31:58;;;;;;;5.87;2.00;;;13.10;1.00;;;;;;5089141;28;20240;-65
2022/11/03 08:34:25;;;;;;;8.77;2.37;;;13.20;1.00;;;;;;5066898;28;20222;-65
2022/11/03 08:36:52;;;;;;;6.83;2.37;;;13.30;1.00;;;;;;5103785;28;20210;-66
2022/11/03 08:39:19;;;;;;;5.67;2.20;;;13.40;1.00;;;;;;5101381;28;20289;-66
2022/11/03 08:41:46;;;;;;;6.90;2.10;;;13.50;1.00;;;;;;5089827;28;20219;-65
2022/11/03 08:44:13;;;;;;;5.23;2.07;;;13.70;1.00;;;;;;5083750;28;20224;-66
2022/11/03 08:46:40;;;;;;;9.27;1.90;;;13.90;1.00;;;;;;5098758;28;20222;-64
2022/11/03 08:49:07;;;;;;;9.57;3.03;;;14.00;1.00;;;;;;5102387;28;20660;-68
2022/11/03 08:51:33;;;;;;;5.83;2.07;;;14.10;1.00;;;;;;5105848;28;20202;-65
2022/11/03 08:54:05;;;;;;;6.43;2.03;;;14.20;1.00;;;;;;5099087;28;20220;-64
2022/11/03 08:56:32;;;;;;;7.93;2.30;;;14.30;1.00;;;;;;5107143;28;20197;-65
2022/11/03 08:59:00;;;;;;;6.37;2.37;;;14.20;1.00;;;;;;5106526;28;20189;-66
2022/11/03 09:01:26;;;;;;;7.80;2.13;;;14.00;1.00;;;;;;5079990;28;20731;-64
2022/11/03 09:03:53;;;;;;;11.93;2.93;;;13.90;1.00;;;;;;5093822;28;20295;-65
2022/11/03 09:06:21;;;;;;;7.73;2.43;;;13.70;1.00;;;;;;5093044;28;20198;-62
2022/11/03 09:08:47;;;;;;;11.53;2.77;;;13.70;1.00;;;;;;5104973;28;20633;-63
2022/11/03 09:11:34;;;;;;;9.73;2.60;;;13.80;1.00;;;;;;5106055;28;20206;-65
2022/11/03 09:14:02;;;;;;;4.70;2.00;;;13.90;1.00;;;;;;5105482;28;20714;-65
2022/11/03 09:16:29;;;;;;;8.70;2.67;;;13.90;1.00;;;;;;5093128;28;20189;-71
2022/11/03 09:18:56;;;;;;;9.53;2.40;;;13.90;1.00;;;;;;5106859;28;20198;-71
2022/11/03 09:21:23;;;;;;;14.53;2.53;;;13.80;1.00;;;;;;5104819;28;20586;-71
2022/11/03 09:23:50;;;;;;;9.43;2.87;;;13.70;1.00;;;;;;5106585;28;20208;-71
2022/11/03 09:26:17;;;;;;;10.47;3.00;;;13.80;1.00;;;;;;5095252;28;20818;-71
2022/11/03 09:28:44;;;;;;;9.30;2.47;;;13.90;1.00;;;;;;5087560;28;20305;-71
2022/11/03 09:31:12;;;;;;;9.03;2.93;;;14.00;1.00;;;;;;5085595;28;20614;-71
2022/11/03 09:33:40;;;;;;;4.93;2.10;;;14.00;1.00;;;;;;5103453;28;20667;-71
2022/11/03 09:36:07;;;;;;;10.50;3.07;;;14.10;1.00;;;;;;5088175;28;20896;-71
2022/11/03 09:38:34;;;;;;;7.50;2.90;;;14.10;1.00;;;;;;5093835;28;20218;-71
2022/11/03 09:41:03;;;;;;;6.87;2.43;;;14.10;1.00;;;;;;5086428;28;20624;-71
2022/11/03 09:43:46;;;;;;;7.20;2.10;;;14.10;1.00;;;;;;5090413;28;20205;-71
2022/11/03 09:46:14;;;;;;;6.63;2.20;;;14.30;1.00;;;;;;5104080;28;20197;-70
2022/11/03 09:48:42;;;;;;;6.83;2.30;;;14.20;1.00;;;;;;5071098;28;20212;-70
2022/11/03 09:51:13;;;;;;;8.03;2.53;;;14.30;1.00;;;;;;5088257;28;20209;-70
2022/11/03 09:53:40;;;;;;;7.88;2.30;;;14.50;1.00;;;;;;5093880;28;20212;-70
2022/11/03 09:56:09;;;;;;;5.93;2.28;;;14.70;1.00;;;;;;5086022;28;20284;-70
2022/11/03 09:58:38;;;;;;;5.25;2.20;;;14.80;1.00;;;;;;5093410;28;20205;-70
2022/11/03 10:01:09;;;;;;;5.63;2.20;;;14.90;1.00;;;;;;5105475;28;20197;-69
2022/11/03 10:03:38;;;;;;;5.43;2.10;;;15.00;1.00;;;;;;5105327;28;20226;-70
2022/11/03 10:06:05;;;;;;;7.40;2.10;;;14.90;1.00;;;;;;5085169;28;20230;-70
2022/11/03 10:08:43;;;;;;;12.75;2.40;;;14.70;1.00;;;;;;5084833;28;20225;-71
2022/11/03 10:11:11;;;;;;;7.25;2.58;;;14.70;1.00;;;;;;5106395;28;20330;-69
2022/11/03 10:13:41;;;;;;;5.85;2.30;;;14.80;1.00;;;;;;5103928;27;20251;-69
2022/11/03 10:16:11;;;;;;;8.35;2.78;;;14.80;1.00;;;;;;5073894;28;20190;-71
2022/11/03 10:18:38;;;;;;;6.30;2.20;;;14.80;1.00;;;;;;5106642;28;20202;-69
2022/11/03 10:21:18;;;;;;;7.53;2.47;;;14.60;1.00;;;;;;5091345;28;20185;-70
2022/11/03 10:23:45;;;;;;;6.90;2.80;;;14.60;1.00;;;;;;5071876;28;20297;-71
2022/11/03 10:26:17;;;;;;;7.68;2.33;;;14.70;1.00;;;;;;5102809;28;20572;-69
2022/11/03 10:29:01;;;;;;;6.88;2.35;;;14.60;1.00;;;;;;5103988;28;20239;-70
2022/11/03 10:31:36;;;;;;;10.32;2.45;;;14.70;1.00;;;;;;5074716;28;20214;-70
2022/11/03 10:34:05;;;;;;;6.77;2.20;;;14.60;1.00;;;;;;5102517;28;20264;-70
2022/11/03 10:36:33;;;;;;;5.68;2.28;;;14.60;1.00;;;;;;5084885;28;20210;-71
2022/11/03 10:39:28;;;;;;;6.18;1.95;;;14.60;1.00;;;;;;5090825;28;20233;-71
2022/11/03 10:41:59;;;;;;;4.50;2.08;;;14.60;1.00;;;;;;5101698;28;20284;-71
2022/11/03 10:44:28;;;;;;;8.20;2.13;;;14.70;1.00;;;;;;5100382;28;20197;-71
2022/11/03 10:46:59;;;;;;;7.97;2.33;;;14.70;1.00;;;;;;5084028;28;20205;-71
2022/11/03 10:49:30;;;;;;;8.33;2.10;;;14.70;1.00;;;;;;5103280;28;20310;-71
2022/11/03 10:52:19;;;;;;;4.55;1.80;;;14.60;1.00;;;;;;5082504;28;20269;-71
2022/11/03 10:54:47;;;;;;;7.70;2.73;;;14.60;1.00;;;;;;5066847;28;20234;-70
2022/11/03 10:57:16;;;;;;;9.53;2.57;;;14.60;1.00;;;;;;5083484;28;20571;-70
2022/11/03 10:59:45;;;;;;;7.40;2.47;;;14.60;1.00;;;;;;5103601;28;20186;-70
2022/11/03 11:02:19;;;;;;;7.30;2.37;;;14.50;1.00;;;;;;5083986;28;20233;-70
2022/11/03 11:04:48;;;;;;;9.03;2.20;;;14.60;1.00;;;;;;5088923;28;20240;-70
2022/11/03 11:07:27;;;;;;;4.43;2.00;;;14.50;1.00;;;;;;5087110;28;20206;-70
2022/11/03 11:09:54;;;;;;;7.73;2.50;;;14.40;1.00;;;;;;5101255;28;20249;-71
2022/11/03 11:12:23;;;;;;;6.20;2.03;;;14.50;1.00;;;;;;5088847;28;20217;-71
2022/11/03 11:14:52;;;;;;;7.28;2.53;;;14.50;1.00;;;;;;5085114;28;20273;-71
2022/11/03 11:17:39;;;;;;;7.23;2.40;;;14.50;1.00;;;;;;5087712;28;20247;-70
2022/11/03 11:20:20;;;;;;;9.13;2.00;;;14.60;1.00;;;;;;5072965;28;20669;-71
2022/11/03 11:22:49;;;;;;;11.13;2.30;;;14.60;1.00;;;;;;5088666;28;20205;-71
2022/11/03 11:25:19;;;;;;;7.60;2.37;;;14.60;1.00;;;;;;5069028;28;20222;-71
2022/11/03 11:27:54;;;;;;;9.70;2.23;;;14.60;1.00;;;;;;5090431;28;20230;-69
2022/11/03 11:30:30;;;;;;;7.22;2.20;;;14.70;1.00;;;;;;5088244;28;20196;-69
2022/11/03 11:33:13;;;;;;;6.53;1.90;;;14.60;1.00;;;;;;5085079;28;20202;-70
2022/11/03 11:35:40;;;;;;;7.10;2.20;;;14.60;1.00;;;;;;5090480;28;20193;-70
2022/11/03 11:38:54;;;;;;;6.55;2.38;;;14.70;1.00;;;;;;5091511;28;20274;-70
2022/11/03 11:42:00;;;;;;;6.10;2.20;;;14.70;1.00;;;;;;5084027;28;20665;-71
2022/11/03 11:44:39;;;;;;;6.32;2.25;;;14.70;1.00;;;;;;5100552;28;20487;-70
2022/11/03 11:47:31;;;;;;;7.67;2.07;;;14.70;1.00;;;;;;5071868;28;20217;-71
2022/11/03 11:50:04;;;;;;;7.88;2.40;;;14.70;1.00;;;;;;5086397;28;20194;-70
2022/11/03 11:52:40;;;;;;;7.13;2.38;;;14.70;1.00;;;;;;5071698;28;20300;-70
2022/11/03 11:55:31;;;;;;;5.35;2.55;;;14.70;1.00;;;;;;5099425;28;20208;-70
2022/11/03 11:58:01;;;;;;;10.68;2.72;;;14.70;1.00;;;;;;5085435;28;20204;-70
2022/11/03 12:00:34;;;;;;;8.63;2.45;;;14.70;1.00;;;;;;5085067;28;20718;-70
2022/11/03 12:03:04;;;;;;;6.82;2.85;;;14.70;1.00;;;;;;5073239;28;20221;-69
2022/11/03 12:05:34;;;;;;;10.10;2.87;;;14.70;1.00;;;;;;5081504;28;20265;-70
2022/11/03 12:08:01;;;;;;;8.05;2.47;;;14.70;1.00;;;;;;5100798;28;20550;-70
2022/11/03 12:10:30;;;;;;;5.32;2.50;;;14.80;1.00;;;;;;5082386;28;20830;-71
2022/11/03 12:12:58;;;;;;;6.97;2.28;;;14.80;1.00;;;;;;5082579;28;20198;-72
2022/11/03 12:15:58;;;;;;;5.75;2.47;;;15.00;1.00;;;;;;5100770;28;20218;-72
2022/11/03 12:18:35;;;;;;;6.28;2.28;;;15.10;1.00;;;;;;5084033;28;20218;-71
2022/11/03 12:21:13;;;;;;;8.23;2.28;;;15.50;1.00;;;;;;5087780;28;20246;-71
2022/11/03 12:23:45;;;;;;;11.05;2.40;;;16.00;1.00;;;;;;5088169;28;20607;-69
2022/11/03 12:26:26;;;;;;;6.05;2.20;;;16.80;1.00;;;;;;5079415;27;20193;-70
2022/11/03 12:28:53;;;;;;;7.85;2.65;;;17.50;1.00;;;;;;5087266;28;20197;-70
2022/11/03 12:31:20;;;;;;;5.95;1.98;;;17.80;1.00;;;;;;5072546;28;20261;-70
2022/11/03 12:33:47;;;;;;;3.92;1.67;;;18.20;1.00;;;;;;5102938;28;20194;-71
2022/11/03 12:36:14;;;;;;;9.27;2.30;;;17.80;1.00;;;;;;5102469;28;20253;-70
2022/11/03 12:38:41;;;;;;;5.65;2.10;;;17.60;1.00;;;;;;5088912;28;20200;-69
2022/11/03 12:41:20;;;;;;;4.18;1.70;;;17.00;1.00;;;;;;5084984;28;20631;-71
2022/11/03 12:43:48;;;;;;;5.45;1.92;;;16.80;1.00;;;;;;5087962;28;20304;-71
2022/11/03 12:46:16;;;;;;;5.25;1.83;;;17.20;1.00;;;;;;5083883;28;20209;-71
2022/11/03 12:48:44;;;;;;;8.27;2.15;;;17.30;1.00;;;;;;5099186;28;20213;-70
2022/11/03 12:51:13;;;;;;;12.82;2.22;;;17.30;1.00;;;;;;5083349;28;20269;-70
2022/11/03 12:53:40;;;;;;;9.38;2.22;;;17.00;1.00;;;;;;5083124;28;20193;-71
2022/11/03 12:56:08;;;;;;;6.25;1.88;;;16.80;1.00;;;;;;5102377;28;20202;-72
2022/11/03 12:58:35;;;;;;;7.78;2.20;;;17.10;1.00;;;;;;5079390;28;20200;-73
2022/11/03 13:01:04;;;;;;;7.95;1.80;;;17.30;1.00;;;;;;5072076;28;20668;-71
2022/11/03 13:03:32;;;;;;;6.28;2.15;;;17.20;1.00;;;;;;5081585;28;20189;-71
2022/11/03 13:06:03;;;;;;;6.18;1.77;;;17.30;1.00;;;;;;5081058;28;20617;-72
2022/11/03 13:08:30;;;;;;;2.58;1.30;;;17.40;1.00;;;;;;5067367;28;20861;-72
2022/11/03 13:10:58;;;;;;;4.60;1.58;;;17.10;1.00;;;;;;5081323;28;20265;-71
2022/11/03 13:13:25;;;;;;;4.55;1.80;;;16.70;1.00;;;;;;5086423;28;20214;-71
2022/11/03 13:15:53;;;;;;;4.53;1.65;;;16.60;1.00;;;;;;5100793;28;20660;-69
2022/11/03 13:18:21;;;;;;;3.17;1.67;;;16.40;1.00;;;;;;5100176;28;20208;-70
2022/11/03 13:20:48;;;;;;;6.18;1.70;;;16.20;1.00;;;;;;5086542;28;20285;-70
2022/11/03 13:23:15;;;;;;;3.33;1.75;;;16.30;1.00;;;;;;5086408;28;20201;-72
2022/11/03 13:25:47;;;;;;;5.10;1.85;;;16.20;1.00;;;;;;5098604;28;20660;-71
2022/11/03 13:28:14;;;;;;;7.57;1.85;;;16.20;1.00;;;;;;5103762;28;20227;-68
2022/11/03 13:30:41;;;;;;;5.10;2.00;;;16.20;1.00;;;;;;5070869;28;20202;-71
2022/11/03 13:33:09;;;;;;;4.65;1.70;;;16.20;1.00;;;;;;5083518;28;20195;-71